createdAt,value
2022-08-10T00:00:36.001Z,20.50
2022-08-10T00:03:03.154Z,20.50
2022-08-10T00:05:43.883Z,20.50
2022-08-10T00:08:22.607Z,20.40
2022-08-10T00:10:55.548Z,20.40
2022-08-10T00:13:24.044Z,20.30
2022-08-10T00:15:54.903Z,20.30
2022-08-10T00:18:34.753Z,20.30
2022-08-10T00:21:09.987Z,20.30
2022-08-10T00:23:38.289Z,20.30
2022-08-10T00:26:06.574Z,20.20
2022-08-10T00:28:33.718Z,20.20
2022-08-10T00:31:00.865Z,20.20
2022-08-10T00:33:28.169Z,20.20
2022-08-10T00:35:55.264Z,20.10
2022-08-10T00:38:22.711Z,20.10
2022-08-10T00:40:49.825Z,20.10
2022-08-10T00:43:23.017Z,20.10
2022-08-10T00:45:58.778Z,20.00
2022-08-10T00:48:31.434Z,20.00
2022-08-10T00:50:59.700Z,19.90
2022-08-10T00:53:28.105Z,19.90
2022-08-10T00:57:12.726Z,19.90
2022-08-10T00:58:43.219Z,19.90
2022-08-10T01:02:07.691Z,19.80
2022-08-10T01:04:36.368Z,19.70
2022-08-10T01:07:07.863Z,19.70
2022-08-10T01:09:56.781Z,19.70
2022-08-10T01:12:50.001Z,19.70
2022-08-10T01:15:31.440Z,19.70
2022-08-10T01:18:10.113Z,19.70
2022-08-10T01:21:07.738Z,19.60
2022-08-10T01:24:26.096Z,19.60
2022-08-10T01:27:15.985Z,19.60
2022-08-10T01:29:57.108Z,19.60
2022-08-10T01:32:36.988Z,19.60
2022-08-10T01:35:16.287Z,19.60
2022-08-10T01:37:52.632Z,19.50
2022-08-10T01:40:25.253Z,19.50
2022-08-10T01:42:54.705Z,19.50
2022-08-10T01:45:24.488Z,19.50
2022-08-10T01:48:16.648Z,19.40
2022-08-10T01:50:59.615Z,19.40
2022-08-10T01:53:40.102Z,19.40
2022-08-10T01:56:13.148Z,19.40
2022-08-10T01:58:41.102Z,19.40
2022-08-10T02:01:11.258Z,19.30
2022-08-10T02:04:04.296Z,19.30
2022-08-10T02:06:42.321Z,19.30
2022-08-10T02:09:14.450Z,19.30
2022-08-10T02:11:57.561Z,19.20
2022-08-10T02:14:34.625Z,19.20
2022-08-10T02:17:09.072Z,19.20
2022-08-10T02:20:00.424Z,19.20
2022-08-10T02:22:36.500Z,19.10
2022-08-10T02:25:42.486Z,19.10
2022-08-10T02:28:04.603Z,19.10
2022-08-10T02:30:32.928Z,19.10
2022-08-10T02:33:02.207Z,19.10
2022-08-10T02:35:35.255Z,19.10
2022-08-10T02:38:20.677Z,19.00
2022-08-10T02:45:06.354Z,18.90
2022-08-10T02:45:18.655Z,18.90
2022-08-10T02:47:02.066Z,18.90
2022-08-10T02:49:36.253Z,18.90
2022-08-10T02:52:09.384Z,18.80
2022-08-10T02:54:39.379Z,18.80
2022-08-10T02:57:19.135Z,18.70
2022-08-10T02:59:52.696Z,18.70
2022-08-10T03:02:34.683Z,18.70
2022-08-10T03:05:09.759Z,18.70
2022-08-10T03:07:53.130Z,18.60
2022-08-10T03:10:24.054Z,18.60
2022-08-10T03:12:56.193Z,18.60
2022-08-10T03:15:25.274Z,18.60
2022-08-10T03:17:57.106Z,18.60
2022-08-10T03:20:37.864Z,18.60
2022-08-10T03:23:13.244Z,18.60
2022-08-10T03:25:53.287Z,18.60
2022-08-10T03:28:27.595Z,18.60
2022-08-10T03:30:56.207Z,18.50
2022-08-10T03:33:26.704Z,18.40
2022-08-10T03:36:41.333Z,18.40
2022-08-10T03:38:41.715Z,18.40
2022-08-10T03:41:16.058Z,18.40
2022-08-10T03:43:48.788Z,18.40
2022-08-10T03:46:19.332Z,18.30
2022-08-10T03:48:50.221Z,18.30
2022-08-10T03:51:19.977Z,18.40
2022-08-10T03:54:05.557Z,18.30
2022-08-10T03:56:36.630Z,18.30
2022-08-10T03:59:04.657Z,18.30
2022-08-10T04:02:44.272Z,18.30
2022-08-10T04:04:24.210Z,18.30
2022-08-10T04:06:57.365Z,18.20
2022-08-10T04:09:53.116Z,18.20
2022-08-10T04:12:20.542Z,18.20
2022-08-10T04:14:49.548Z,18.10
2022-08-10T04:18:03.324Z,18.10
2022-08-10T04:20:08.347Z,18.10
2022-08-10T04:22:36.687Z,18.10
2022-08-10T04:25:05.938Z,18.10
2022-08-10T04:27:33.134Z,18.00
2022-08-10T04:30:00.328Z,18.00
2022-08-10T04:32:31.605Z,18.10
2022-08-10T04:35:00.157Z,18.00
2022-08-10T04:37:28.998Z,18.00
2022-08-10T04:39:56.763Z,18.00
2022-08-10T04:42:24.554Z,18.00
2022-08-10T04:44:51.793Z,17.90
2022-08-10T04:47:57.643Z,18.00
2022-08-10T04:50:06.782Z,17.90
2022-08-10T04:52:35.278Z,17.90
2022-08-10T04:55:02.511Z,17.90
2022-08-10T04:57:29.544Z,17.90
2022-08-10T04:59:56.855Z,17.90
2022-08-10T05:02:31.196Z,17.90
2022-08-10T05:04:59.297Z,17.90
2022-08-10T05:07:26.847Z,17.90
2022-08-10T05:10:04.735Z,17.90
2022-08-10T05:12:38.679Z,17.90
2022-08-10T05:15:14.300Z,18.00
2022-08-10T05:18:08.992Z,18.00
2022-08-10T05:20:30.414Z,18.00
2022-08-10T05:22:57.517Z,18.00
2022-08-10T05:25:24.505Z,18.10
2022-08-10T05:27:52.471Z,18.10
2022-08-10T05:30:22.021Z,18.20
2022-08-10T05:32:56.813Z,18.20
2022-08-10T05:35:27.343Z,18.30
2022-08-10T05:38:10.379Z,18.30
2022-08-10T05:40:47.438Z,18.30
2022-08-10T05:43:19.814Z,18.40
2022-08-10T05:46:17.055Z,18.40
2022-08-10T05:48:54.750Z,18.40
2022-08-10T05:51:28.491Z,18.60
2022-08-10T05:54:01.940Z,18.50
2022-08-10T05:56:55.555Z,18.60
2022-08-10T06:00:33.641Z,18.60
2022-08-10T06:02:41.617Z,18.70
2022-08-10T06:05:12.356Z,18.80
2022-08-10T06:08:07.662Z,18.90
2022-08-10T06:10:59.735Z,18.90
2022-08-10T06:13:59.688Z,18.90
2022-08-10T06:16:33.281Z,19.00
2022-08-10T06:19:02.434Z,19.20
2022-08-10T06:21:29.561Z,19.20
2022-08-10T06:23:59.423Z,19.40
2022-08-10T06:26:26.524Z,19.40
2022-08-10T06:29:07.373Z,19.40
2022-08-10T06:31:47.511Z,19.50
2022-08-10T06:34:19.740Z,19.60
2022-08-10T06:36:47.372Z,19.60
2022-08-10T06:39:33.104Z,19.60
2022-08-10T06:42:17.978Z,19.80
2022-08-10T06:45:06.348Z,19.80
2022-08-10T06:47:54.242Z,19.80
2022-08-10T06:50:34.559Z,19.80
2022-08-10T06:53:23.510Z,19.90
2022-08-10T06:55:57.373Z,20.00
2022-08-10T06:58:34.030Z,20.10
2022-08-10T07:01:05.015Z,20.20
2022-08-10T07:03:36.761Z,20.20
2022-08-10T07:06:06.540Z,20.30
2022-08-10T07:08:36.916Z,20.40
2022-08-10T07:11:10.044Z,20.40
2022-08-10T07:14:15.458Z,20.50
2022-08-10T07:16:29.231Z,20.60
2022-08-10T07:19:01.655Z,20.70
2022-08-10T07:21:30.041Z,20.80
2022-08-10T07:24:00.791Z,20.90
2022-08-10T07:26:30.604Z,20.90
2022-08-10T07:28:59.268Z,21.10
2022-08-10T07:31:56.368Z,21.10
2022-08-10T07:34:28.726Z,21.20
2022-08-10T07:37:01.889Z,21.30
2022-08-10T07:40:03.630Z,21.40
2022-08-10T07:42:27.905Z,21.60
2022-08-10T07:44:58.953Z,21.60
2022-08-10T07:47:46.057Z,21.70
2022-08-10T07:50:24.357Z,21.90
2022-08-10T07:52:54.501Z,21.90
2022-08-10T07:56:03.506Z,22.00
2022-08-10T07:58:11.587Z,22.10
2022-08-10T08:00:40.666Z,22.20
2022-08-10T08:03:09.572Z,22.20
2022-08-10T08:05:59.376Z,22.30
2022-08-10T08:08:28.754Z,22.40
2022-08-10T08:10:58.273Z,22.50
2022-08-10T08:13:26.850Z,22.60
2022-08-10T08:16:20.343Z,22.60
2022-08-10T08:18:58.228Z,22.90
2022-08-10T08:24:05.992Z,22.90
2022-08-10T08:24:33.446Z,23.00
2022-08-10T08:27:05.820Z,23.20
2022-08-10T08:29:37.713Z,23.20
2022-08-10T08:32:05.649Z,23.30
2022-08-10T08:34:34.617Z,23.30
2022-08-10T08:37:02.999Z,23.40
2022-08-10T08:39:36.967Z,23.40
2022-08-10T08:42:18.532Z,23.70
2022-08-10T08:44:57.574Z,23.80
2022-08-10T08:48:03.654Z,23.90
2022-08-10T08:51:08.553Z,24.10
2022-08-10T08:54:07.837Z,24.30
2022-08-10T08:56:39.773Z,24.40
2022-08-10T08:59:21.859Z,24.60
2022-08-10T09:01:53.991Z,24.80
2022-08-10T09:04:50.069Z,24.80
2022-08-10T09:07:59.427Z,24.90
2022-08-10T09:10:39.814Z,25.00
2022-08-10T09:13:29.594Z,25.20
2022-08-10T09:16:35.201Z,25.30
2022-08-10T09:19:10.851Z,25.40
2022-08-10T09:22:17.407Z,25.50
2022-08-10T09:25:09.494Z,25.60
2022-08-10T09:27:49.283Z,25.70
2022-08-10T09:30:35.765Z,25.80
2022-08-10T09:36:26.382Z,25.90
2022-08-10T09:36:31.838Z,26.10
2022-08-10T09:40:12.687Z,26.20
2022-08-10T09:42:14.991Z,26.20
2022-08-10T09:45:10.073Z,26.20
2022-08-10T09:48:02.200Z,26.40
2022-08-10T09:51:09.337Z,26.50
2022-08-10T09:54:04.990Z,26.60
2022-08-10T09:56:46.985Z,26.70
2022-08-10T10:00:00.276Z,26.80
2022-08-10T10:02:29.754Z,26.90
2022-08-10T10:05:02.555Z,27.00
2022-08-10T10:07:30.096Z,27.20
2022-08-10T10:10:00.570Z,27.30
2022-08-10T10:12:34.773Z,27.30
2022-08-10T10:15:24.097Z,27.30
2022-08-10T10:18:11.637Z,27.30
2022-08-10T10:20:59.764Z,27.30
2022-08-10T10:24:05.364Z,27.50
2022-08-10T10:26:56.535Z,27.50
2022-08-10T10:30:11.716Z,27.60
2022-08-10T10:32:59.574Z,27.60
2022-08-10T10:35:55.193Z,27.80
2022-08-10T10:38:27.075Z,28.00
2022-08-10T10:41:31.308Z,28.10
2022-08-10T10:44:55.686Z,28.30
2022-08-10T10:47:46.772Z,28.40
2022-08-10T10:50:24.435Z,28.50
2022-08-10T10:53:06.706Z,28.60
2022-08-10T10:56:15.415Z,28.60
2022-08-10T10:59:01.967Z,28.60
2022-08-10T11:02:10.584Z,28.80
2022-08-10T11:04:47.164Z,28.90
2022-08-10T11:07:29.502Z,28.90
2022-08-10T11:10:31.784Z,28.90
2022-08-10T11:14:25.466Z,29.00
2022-08-10T11:16:18.513Z,29.10
2022-08-10T11:18:59.648Z,29.30
2022-08-10T11:21:47.647Z,29.30
2022-08-10T11:24:49.730Z,29.30
2022-08-10T11:27:52.738Z,29.30
2022-08-10T11:30:29.390Z,29.40
2022-08-10T11:33:46.812Z,29.50
2022-08-10T11:36:46.328Z,29.60
2022-08-10T11:40:04.140Z,29.70
2022-08-10T11:42:44.875Z,29.70
2022-08-10T11:45:27.815Z,29.90
2022-08-10T11:48:02.296Z,30.00
2022-08-10T11:50:34.982Z,30.10
2022-08-10T11:53:38.781Z,30.20
2022-08-10T11:56:11.355Z,30.20
2022-08-10T11:59:02.136Z,30.30
2022-08-10T12:01:45.919Z,30.40
2022-08-10T12:04:15.199Z,30.40
2022-08-10T12:06:59.812Z,30.50
2022-08-10T12:10:07.643Z,30.70
2022-08-10T12:12:16.641Z,30.80
2022-08-10T12:15:19.704Z,30.90
2022-08-10T12:17:52.506Z,31.10
2022-08-10T12:20:31.831Z,31.20
2022-08-10T12:23:22.406Z,31.30
2022-08-10T12:26:13.379Z,31.30
2022-08-10T12:29:06.668Z,31.30
2022-08-10T12:32:01.294Z,31.30
2022-08-10T12:34:50.776Z,31.50
2022-08-10T12:37:30.001Z,31.60
2022-08-10T12:40:35.127Z,31.60
2022-08-10T12:44:03.730Z,31.70
2022-08-10T12:46:18.545Z,31.70
2022-08-10T12:49:02.748Z,31.90
2022-08-10T12:51:33.809Z,32.00
2022-08-10T12:54:11.207Z,32.10
2022-08-10T12:56:47.795Z,32.10
2022-08-10T12:59:14.923Z,31.90
2022-08-10T13:02:06.537Z,32.00
2022-08-10T13:04:36.234Z,32.10
2022-08-10T13:07:05.627Z,32.30
2022-08-10T13:09:34.618Z,32.50
2022-08-10T13:12:35.357Z,32.30
2022-08-10T13:15:46.038Z,32.40
2022-08-10T13:18:02.722Z,32.50
2022-08-10T13:20:37.140Z,32.50
2022-08-10T13:23:14.524Z,32.50
2022-08-10T13:25:48.807Z,32.70
2022-08-10T13:28:37.506Z,32.90
2022-08-10T13:31:16.662Z,33.00
2022-08-10T13:34:41.704Z,33.00
2022-08-10T13:36:42.281Z,33.00
2022-08-10T13:39:11.029Z,33.10
2022-08-10T13:41:44.510Z,33.10
2022-08-10T13:44:15.620Z,32.90
2022-08-10T13:46:52.512Z,32.70
2022-08-10T13:49:21.876Z,32.70
2022-08-10T13:51:54.384Z,32.80
2022-08-10T13:54:28.469Z,32.80
2022-08-10T13:56:56.927Z,32.70
2022-08-10T14:00:37.380Z,32.80
2022-08-10T14:02:21.662Z,33.00
2022-08-10T14:04:48.724Z,33.20
2022-08-10T14:07:17.503Z,33.20
2022-08-10T14:09:47.766Z,33.20
2022-08-10T14:12:16.803Z,33.30
2022-08-10T14:14:53.023Z,33.40
2022-08-10T14:17:22.851Z,33.50
2022-08-10T14:19:58.754Z,33.60
2022-08-10T14:22:34.506Z,33.70
2022-08-10T14:25:09.379Z,33.50
2022-08-10T14:28:01.947Z,33.60
2022-08-10T14:30:31.171Z,33.70
2022-08-10T14:33:00.503Z,33.80
2022-08-10T14:36:19.561Z,33.90
2022-08-10T14:38:20.813Z,33.70
2022-08-10T14:40:52.520Z,33.70
2022-08-10T14:43:28.695Z,33.70
2022-08-10T14:46:02.649Z,33.60
2022-08-10T14:48:38.390Z,33.60
2022-08-10T14:51:07.636Z,33.60
2022-08-10T14:53:37.094Z,33.60
2022-08-10T14:56:11.061Z,33.50
2022-08-10T14:58:59.424Z,33.50
2022-08-10T15:02:00.563Z,33.50
2022-08-10T15:04:28.398Z,33.60
2022-08-10T15:06:57.522Z,33.70
2022-08-10T15:09:28.284Z,33.60
2022-08-10T15:12:14.356Z,33.70
2022-08-10T15:14:48.381Z,33.80
2022-08-10T15:17:26.314Z,34.00
2022-08-10T15:20:03.120Z,34.00
2022-08-10T15:22:40.561Z,33.90
2022-08-10T15:25:19.249Z,34.00
2022-08-10T15:27:53.454Z,34.00
2022-08-10T15:30:29.941Z,33.80
2022-08-10T15:34:02.354Z,33.70
2022-08-10T15:36:46.502Z,33.70
2022-08-10T15:40:21.642Z,33.90
2022-08-10T15:42:23.076Z,33.90
2022-08-10T15:44:54.175Z,33.90
2022-08-10T15:47:45.191Z,33.70
2022-08-10T15:50:13.321Z,33.60
2022-08-10T15:53:00.469Z,33.50
2022-08-10T15:55:42.337Z,33.60
2022-08-10T15:58:39.810Z,33.80
2022-08-10T16:02:15.119Z,33.80
2022-08-10T16:04:32.809Z,33.90
2022-08-10T16:07:02.329Z,33.90
2022-08-10T16:10:22.804Z,33.60
2022-08-10T16:12:35.462Z,33.50
2022-08-10T16:15:25.058Z,33.50
2022-08-10T16:18:03.624Z,33.50
2022-08-10T16:20:32.855Z,33.70
2022-08-10T16:23:07.533Z,33.70
2022-08-10T16:25:51.695Z,33.80
2022-08-10T16:28:23.870Z,33.70
2022-08-10T16:30:56.486Z,33.60
2022-08-10T16:33:52.815Z,33.70
2022-08-10T16:36:20.934Z,33.70
2022-08-10T16:38:50.799Z,33.70
2022-08-10T16:42:05.241Z,33.70
2022-08-10T16:44:15.864Z,33.80
2022-08-10T16:46:45.289Z,33.60
2022-08-10T16:49:18.122Z,33.50
2022-08-10T16:51:50.467Z,33.50
2022-08-10T16:54:26.267Z,33.40
2022-08-10T16:56:54.747Z,33.40
2022-08-10T16:59:24.293Z,33.40
2022-08-10T17:01:54.237Z,33.40
2022-08-10T17:04:23.710Z,33.30
2022-08-10T17:06:57.151Z,33.20
2022-08-10T17:09:30.666Z,33.30
2022-08-10T17:12:00.078Z,33.10
2022-08-10T17:14:29.229Z,33.00
2022-08-10T17:17:26.026Z,33.00
2022-08-10T17:20:30.324Z,33.00
2022-08-10T17:22:50.480Z,33.00
2022-08-10T17:25:48.976Z,33.10
2022-08-10T17:28:17.801Z,32.90
2022-08-10T17:31:18.937Z,32.70
2022-08-10T17:33:58.263Z,32.40
2022-08-10T17:36:35.645Z,32.40
2022-08-10T17:39:04.412Z,32.40
2022-08-10T17:41:35.492Z,32.40
2022-08-10T17:44:05.639Z,32.40
2022-08-10T17:46:36.037Z,32.20
2022-08-10T17:49:08.368Z,32.10
2022-08-10T17:51:38.555Z,32.00
2022-08-10T17:54:14.431Z,31.90
2022-08-10T17:56:41.950Z,31.90
2022-08-10T17:59:17.266Z,31.80
2022-08-10T18:01:58.948Z,31.80
2022-08-10T18:04:40.886Z,31.60
2022-08-10T18:07:10.522Z,31.60
2022-08-10T18:09:40.471Z,31.60
2022-08-10T18:12:17.888Z,31.50
2022-08-10T18:14:49.788Z,31.40
2022-08-10T18:17:32.178Z,31.20
2022-08-10T18:20:07.994Z,31.10
2022-08-10T18:22:51.943Z,30.90
2022-08-10T18:25:34.120Z,30.70
2022-08-10T18:28:05.451Z,30.60
2022-08-10T18:30:45.290Z,30.40
2022-08-10T18:33:15.071Z,30.30
2022-08-10T18:35:44.918Z,30.10
2022-08-10T18:38:13.374Z,29.90
2022-08-10T18:40:44.181Z,29.90
2022-08-10T18:44:05.572Z,29.70
2022-08-10T18:46:10.742Z,29.60
2022-08-10T18:49:13.197Z,29.50
2022-08-10T18:51:46.316Z,29.40
2022-08-10T18:54:38.941Z,29.20
2022-08-10T18:57:37.216Z,29.10
2022-08-10T19:00:15.309Z,29.00
2022-08-10T19:03:03.263Z,28.80
2022-08-10T19:05:38.933Z,28.70
2022-08-10T19:08:36.000Z,28.60
2022-08-10T19:11:09.184Z,28.50
2022-08-10T19:13:48.979Z,28.40
2022-08-10T19:16:42.756Z,28.20
2022-08-10T19:19:44.865Z,28.10
2022-08-10T19:22:46.467Z,28.00
2022-08-10T19:26:40.981Z,27.90
2022-08-10T19:28:16.987Z,27.80
2022-08-10T19:30:54.678Z,27.70
2022-08-10T19:34:11.635Z,27.60
2022-08-10T19:37:07.281Z,27.60
2022-08-10T19:39:50.412Z,27.50
2022-08-10T19:42:31.744Z,27.30
2022-08-10T19:45:06.979Z,27.30
2022-08-10T19:48:01.700Z,27.30
2022-08-10T19:50:37.581Z,27.20
2022-08-10T19:53:04.473Z,27.10
2022-08-10T19:55:43.564Z,27.00
2022-08-10T19:58:30.883Z,27.00
2022-08-10T20:01:03.433Z,26.90
2022-08-10T20:03:51.259Z,26.80
2022-08-10T20:06:30.217Z,26.80
2022-08-10T20:09:06.919Z,26.70
2022-08-10T20:11:56.616Z,26.70
2022-08-10T20:14:36.316Z,26.60
2022-08-10T20:17:07.653Z,26.60
2022-08-10T20:19:56.219Z,26.50
2022-08-10T20:22:29.457Z,26.50
2022-08-10T20:25:14.126Z,26.40
2022-08-10T20:28:03.604Z,26.40
2022-08-10T20:30:36.705Z,26.30
2022-08-10T20:33:10.433Z,26.20
2022-08-10T20:35:37.378Z,26.20
2022-08-10T20:38:11.646Z,26.10
2022-08-10T20:41:14.677Z,26.10
2022-08-10T20:43:55.905Z,26.10
2022-08-10T20:46:27.700Z,26.00
2022-08-10T20:48:54.889Z,25.90
2022-08-10T20:51:59.509Z,25.90
2022-08-10T20:54:17.015Z,25.80
2022-08-10T20:57:54.526Z,25.80
2022-08-10T21:00:24.196Z,25.80
2022-08-10T21:03:24.786Z,25.70
2022-08-10T21:06:03.265Z,25.80
2022-08-10T21:08:56.502Z,25.70
2022-08-10T21:12:01.433Z,25.70
2022-08-10T21:14:31.815Z,25.70
2022-08-10T21:17:20.306Z,25.70
2022-08-10T21:20:14.132Z,25.70
2022-08-10T21:22:48.565Z,25.60
2022-08-10T21:25:26.050Z,25.50
2022-08-10T21:27:59.799Z,25.50
2022-08-10T21:30:51.384Z,25.40
2022-08-10T21:33:36.923Z,25.40
2022-08-10T21:36:17.380Z,25.30
2022-08-10T21:38:51.538Z,25.20
2022-08-10T21:41:56.615Z,25.10
2022-08-10T21:45:07.845Z,25.20
2022-08-10T21:48:32.596Z,25.10
2022-08-10T21:52:00.550Z,25.10
2022-08-10T21:54:38.831Z,24.90
2022-08-10T21:57:47.116Z,24.90
2022-08-10T22:00:35.490Z,24.80
2022-08-10T22:03:23.376Z,24.70
2022-08-10T22:06:12.774Z,24.60
2022-08-10T22:09:03.961Z,24.60
2022-08-10T22:11:53.667Z,24.50
2022-08-10T22:15:00.323Z,24.50
2022-08-10T22:18:03.341Z,24.40
2022-08-10T22:20:54.475Z,24.30
2022-08-10T22:24:20.895Z,24.30
2022-08-10T22:27:46.156Z,24.30
2022-08-10T22:30:35.975Z,24.20
2022-08-10T22:33:35.292Z,24.10
2022-08-10T22:36:32.844Z,24.10
2022-08-10T22:40:11.596Z,24.00
2022-08-10T22:43:14.756Z,24.00
2022-08-10T22:46:25.440Z,23.90
2022-08-10T22:49:01.823Z,23.80
2022-08-10T22:51:48.152Z,23.80
2022-08-10T22:54:38.778Z,23.80
2022-08-10T22:57:25.093Z,23.80
2022-08-10T22:59:52.315Z,23.70
2022-08-10T23:02:29.705Z,23.60
2022-08-10T23:05:14.286Z,23.60
2022-08-10T23:07:57.382Z,23.60
2022-08-10T23:10:29.266Z,23.60
2022-08-10T23:13:08.616Z,23.50
2022-08-10T23:15:56.739Z,23.50
2022-08-10T23:18:56.134Z,23.50
2022-08-10T23:22:03.266Z,23.40
2022-08-10T23:24:48.924Z,23.30
2022-08-10T23:27:38.587Z,23.30
2022-08-10T23:30:10.495Z,23.30
2022-08-10T23:32:42.524Z,23.30
2022-08-10T23:36:30.567Z,23.30
2022-08-10T23:38:14.747Z,23.30
2022-08-10T23:40:48.446Z,23.20
2022-08-10T23:43:32.035Z,23.20
2022-08-10T23:46:09.138Z,23.10
2022-08-10T23:48:38.863Z,23.10
2022-08-10T23:51:16.305Z,23.10
2022-08-10T23:53:48.245Z,23.10
2022-08-10T23:56:19.649Z,23.00
2022-08-10T23:58:49.256Z,23.00
